Time;durP1;ratioP1;P1;durP2;ratioP2;P2;SDS_P1;SDS_P2;PMS_P1;PMS_P2;Temp;Humidity;BMP_temperature;BMP_pressure;BME280_temperature;BME280_humidity;BME280_pressure;Samples;Min_cycle;Max_cycle;Signal;HPM_P1;HPM_P2
2022/09/25 00:00:42;;;;;;;0.00;0.00;;;10.20;99.90;;;;;;5004712;28;20029;-77
2022/09/25 00:03:09;;;;;;;0.40;0.38;;;10.20;99.90;;;;;;5004237;28;20026;-77
2022/09/25 00:05:40;;;;;;;0.20;0.20;;;10.20;99.90;;;;;;5004221;28;20567;-77
2022/09/25 00:08:07;;;;;;;0.10;0.10;;;10.20;99.90;;;;;;5008096;28;20022;-77
2022/09/25 00:10:34;;;;;;;0.88;0.85;;;10.20;99.90;;;;;;5018752;28;20037;-77
2022/09/25 00:13:00;;;;;;;1.50;1.40;;;10.20;99.90;;;;;;5018760;28;20033;-78
2022/09/25 00:15:26;;;;;;;6.70;2.10;;;10.20;99.90;;;;;;5018805;28;20255;-78
2022/09/25 00:17:52;;;;;;;0.38;0.32;;;10.10;99.90;;;;;;5019731;28;20037;-77
2022/09/25 00:20:19;;;;;;;0.63;0.60;;;10.20;99.90;;;;;;5007126;28;20029;-77
2022/09/25 00:22:46;;;;;;;0.85;0.85;;;10.10;99.90;;;;;;5003817;28;20049;-76
2022/09/25 00:25:15;;;;;;;0.00;0.00;;;10.20;99.90;;;;;;5004492;28;20072;-77
2022/09/25 00:27:42;;;;;;;0.30;0.30;;;10.20;99.90;;;;;;5004799;28;20087;-77
2022/09/25 00:30:11;;;;;;;0.00;0.00;;;10.20;99.90;;;;;;5002671;28;20061;-77
2022/09/25 00:32:38;;;;;;;2.08;0.77;;;10.20;99.90;;;;;;5005218;28;20104;-77
2022/09/25 00:35:05;;;;;;;0.00;0.00;;;10.30;99.90;;;;;;5005315;28;20108;-76
2022/09/25 00:37:33;;;;;;;0.20;0.20;;;10.30;99.90;;;;;;5004437;28;20113;-76
2022/09/25 00:39:59;;;;;;;0.55;0.45;;;10.30;99.90;;;;;;5005053;28;20026;-77
2022/09/25 00:42:27;;;;;;;0.47;0.47;;;10.30;99.90;;;;;;5006568;28;20029;-76
2022/09/25 00:44:59;;;;;;;0.22;0.22;;;10.30;99.90;;;;;;5007905;28;20669;-77
2022/09/25 00:47:41;;;;;;;8.15;1.58;;;10.30;99.90;;;;;;5006737;28;20037;-77
2022/09/25 00:50:27;;;;;;;2.03;1.23;;;10.30;99.90;;;;;;5006508;28;20030;-77
2022/09/25 00:52:55;;;;;;;6.63;0.93;;;10.30;99.90;;;;;;5008941;28;20086;-76
2022/09/25 00:55:25;;;;;;;2.80;2.20;;;10.30;99.90;;;;;;5007323;28;20088;-77
2022/09/25 00:57:54;;;;;;;1.10;1.08;;;10.30;99.90;;;;;;5009555;28;20054;-77
2022/09/25 01:00:20;;;;;;;2.92;2.70;;;10.30;99.90;;;;;;5011140;28;20022;-77
2022/09/25 01:02:52;;;;;;;5.95;5.38;;;10.30;99.90;;;;;;5008159;28;20022;-77
2022/09/25 01:05:25;;;;;;;6.13;5.55;;;10.30;99.90;;;;;;5007355;28;20021;-77
2022/09/25 01:07:52;;;;;;;3.40;2.78;;;10.30;99.90;;;;;;5005562;28;20072;-77
2022/09/25 01:10:20;;;;;;;3.53;2.45;;;10.30;99.90;;;;;;5005687;28;20038;-76
2022/09/25 01:12:47;;;;;;;4.75;2.30;;;10.30;99.90;;;;;;5002962;28;20073;-77
2022/09/25 01:15:17;;;;;;;0.08;0.08;;;10.40;99.90;;;;;;5006075;28;20049;-76
2022/09/25 01:17:51;;;;;;;1.45;1.35;;;10.40;99.90;;;;;;5004356;28;20099;-77
2022/09/25 01:20:42;;;;;;;0.10;0.10;;;10.40;99.90;;;;;;5004125;28;20026;-77
2022/09/25 01:23:47;;;;;;;0.60;0.40;;;10.40;99.90;;;;;;5004209;28;20033;-77
2022/09/25 01:26:12;;;;;;;;;;;10.40;99.90;;;;;;4985335;28;20034;-77
2022/09/25 01:28:58;;;;;;;0.80;0.80;;;10.40;99.90;;;;;;4982268;28;20507;-76
2022/09/25 01:31:44;;;;;;;0.10;0.10;;;10.30;99.90;;;;;;4983307;28;20252;-77
2022/09/25 01:34:22;;;;;;;0.10;0.10;;;10.40;99.90;;;;;;4985584;28;20556;-76
2022/09/25 01:36:57;;;;;;;0.90;0.90;;;10.30;99.90;;;;;;4990624;28;20401;-77
2022/09/25 01:39:46;;;;;;;0.17;0.17;;;10.30;99.90;;;;;;4990363;28;20034;-77
2022/09/25 01:42:24;;;;;;;0.10;0.10;;;10.40;99.90;;;;;;4985319;28;20374;-77
2022/09/25 01:45:03;;;;;;;1.45;1.35;;;10.30;99.90;;;;;;4981840;28;20038;-76
2022/09/25 01:47:33;;;;;;;0.63;0.43;;;10.30;99.90;;;;;;4964247;28;20489;-77
2022/09/25 01:50:11;;;;;;;0.10;0.10;;;10.40;99.90;;;;;;4983015;28;20363;-77
2022/09/25 01:52:41;;;;;;;0.52;0.28;;;11.90;99.90;;;;;;4980326;28;20042;-76
2022/09/25 01:55:20;;;;;;;0.82;0.82;;;10.30;99.90;;;;;;4979603;28;20096;-76
2022/09/25 01:58:09;;;;;;;0.70;0.70;;;10.30;99.90;;;;;;4966435;28;20347;-76
2022/09/25 02:00:40;;;;;;;0.95;0.85;;;10.30;99.90;;;;;;4984864;28;20080;-77
2022/09/25 02:03:20;;;;;;;1.08;1.02;;;10.20;99.90;;;;;;4992031;28;20640;-76
2022/09/25 02:05:52;;;;;;;0.10;0.10;;;10.10;99.90;;;;;;5008711;28;20358;-77
2022/09/25 02:08:44;;;;;;;0.60;0.47;;;10.00;99.90;;;;;;5009444;28;20018;-77
2022/09/25 02:11:11;;;;;;;0.28;0.28;;;9.90;99.90;;;;;;5015945;28;20037;-76
2022/09/25 02:13:44;;;;;;;2.13;1.45;;;9.90;99.90;;;;;;5014153;28;20046;-78
2022/09/25 02:16:16;;;;;;;1.17;1.07;;;9.80;99.90;;;;;;5011723;28;20080;-77
2022/09/25 02:21:44;;;;;;;2.55;2.10;;;9.80;99.90;;;;;;5001598;28;20096;-76
2022/09/25 02:24:29;;;;;;;0.25;0.25;;;9.70;99.90;;;;;;5002330;28;20025;-77
2022/09/25 02:26:55;;;;;;;0.32;0.32;;;9.70;99.90;;;;;;5001815;28;20547;-77
2022/09/25 02:29:22;;;;;;;0.65;0.65;;;9.70;99.90;;;;;;5000232;28;20026;-77
2022/09/25 02:31:56;;;;;;;0.40;0.30;;;9.60;99.90;;;;;;4999786;28;20033;-76
2022/09/25 02:34:22;;;;;;;1.77;1.30;;;9.60;99.90;;;;;;5001419;28;20264;-76
2022/09/25 02:36:49;;;;;;;1.30;1.20;;;9.60;99.90;;;;;;5001554;28;20530;-76
2022/09/25 02:39:17;;;;;;;0.30;0.25;;;9.40;99.90;;;;;;5001279;28;20051;-76
2022/09/25 02:42:12;;;;;;;0.28;0.28;;;9.40;99.90;;;;;;5001586;28;20026;-77
2022/09/25 02:45:16;;;;;;;;;;;9.30;99.90;;;;;;4979892;28;20061;-77
2022/09/25 02:48:00;;;;;;;0.00;0.00;;;9.30;99.90;;;;;;4943526;28;19914;-76
2022/09/25 02:50:46;;;;;;;0.13;0.13;;;9.30;99.90;;;;;;4959273;28;20039;-77
2022/09/25 02:53:34;;;;;;;0.00;0.00;;;9.30;99.90;;;;;;4959046;28;20452;-77
2022/09/25 02:56:19;;;;;;;0.10;0.10;;;9.30;99.90;;;;;;4958966;28;20041;-77
2022/09/25 02:58:55;;;;;;;0.80;0.52;;;9.30;99.90;;;;;;4958941;28;20035;-76
2022/09/25 03:01:24;;;;;;;0.00;0.00;;;9.30;99.90;;;;;;4960024;28;20101;-76
2022/09/25 03:03:53;;;;;;;0.17;0.15;;;9.20;99.90;;;;;;4960224;28;20200;-77
2022/09/25 03:06:21;;;;;;;0.88;0.45;;;9.20;99.90;;;;;;4959470;28;20089;-76
2022/09/25 03:08:50;;;;;;;0.10;0.10;;;9.20;99.90;;;;;;4942462;28;20076;-76
2022/09/25 03:11:20;;;;;;;0.10;0.10;;;9.20;99.90;;;;;;4942720;28;20046;-77
2022/09/25 03:14:01;;;;;;;0.00;0.00;;;9.30;99.90;;;;;;4942134;28;20078;-76
2022/09/25 03:16:55;;;;;;;0.00;0.00;;;9.30;99.90;;;;;;4958984;28;20296;-77
2022/09/25 03:19:20;;;;;;;0.10;0.10;;;9.40;99.90;;;;;;4978704;28;20121;-77
2022/09/25 03:21:47;;;;;;;0.20;0.20;;;9.40;99.90;;;;;;4993342;28;20034;-77
2022/09/25 03:24:14;;;;;;;0.43;0.30;;;9.40;99.90;;;;;;5004885;28;20102;-77
2022/09/25 03:26:40;;;;;;;0.10;0.10;;;9.30;99.90;;;;;;5003479;28;20045;-77
2022/09/25 03:29:07;;;;;;;0.10;0.10;;;9.40;99.90;;;;;;5004847;28;20523;-77
2022/09/25 03:31:34;;;;;;;0.43;0.40;;;9.40;99.90;;;;;;5004314;28;20459;-77
2022/09/25 03:34:00;;;;;;;0.70;0.57;;;9.40;99.90;;;;;;5006961;28;20318;-77
2022/09/25 03:36:28;;;;;;;0.30;0.30;;;9.40;99.90;;;;;;5004497;28;20068;-76
2022/09/25 03:38:58;;;;;;;2.92;2.72;;;9.40;99.90;;;;;;5004664;28;20121;-77
2022/09/25 03:41:30;;;;;;;0.00;0.00;;;9.40;99.90;;;;;;5005305;28;20025;-76
2022/09/25 03:43:56;;;;;;;0.10;0.10;;;9.30;99.90;;;;;;5005053;28;20025;-77
2022/09/25 03:46:24;;;;;;;0.15;0.13;;;9.40;99.90;;;;;;5004791;28;20052;-76
2022/09/25 03:48:51;;;;;;;0.30;0.30;;;9.40;99.90;;;;;;5004356;28;20221;-76
2022/09/25 03:51:18;;;;;;;0.43;0.30;;;9.40;99.90;;;;;;5004388;28;20078;-76
2022/09/25 03:53:44;;;;;;;0.10;0.10;;;9.40;99.90;;;;;;5004622;28;20030;-77
2022/09/25 03:56:13;;;;;;;0.00;0.00;;;9.40;99.90;;;;;;5005631;28;20444;-76
2022/09/25 03:58:39;;;;;;;0.40;0.40;;;9.40;99.90;;;;;;5003961;28;20109;-77
2022/09/25 04:01:05;;;;;;;0.20;0.20;;;9.50;99.90;;;;;;5003922;28;20093;-78
2022/09/25 04:03:32;;;;;;;0.40;0.40;;;7.00;99.90;;;;;;5003930;28;20022;-76
2022/09/25 04:06:00;;;;;;;0.32;0.20;;;9.60;99.90;;;;;;5003747;28;20484;-77
2022/09/25 04:08:27;;;;;;;0.03;0.03;;;9.60;99.90;;;;;;5003026;28;20027;-76
2022/09/25 04:10:55;;;;;;;0.10;0.10;;;9.60;99.90;;;;;;5004082;28;20544;-77
2022/09/25 04:13:22;;;;;;;0.47;0.47;;;9.70;99.90;;;;;;5003764;28;20030;-76
2022/09/25 04:15:48;;;;;;;0.30;0.30;;;9.70;99.90;;;;;;5003026;28;20037;-77
2022/09/25 04:18:14;;;;;;;0.08;0.08;;;9.80;99.90;;;;;;5005249;28;20014;-77
2022/09/25 04:20:40;;;;;;;0.25;0.25;;;9.80;99.90;;;;;;5004185;28;20037;-77
2022/09/25 04:23:06;;;;;;;0.17;0.17;;;9.80;99.90;;;;;;5003558;28;20033;-78
2022/09/25 04:25:32;;;;;;;0.00;0.00;;;9.90;99.90;;;;;;5006513;28;20026;-76
2022/09/25 04:27:58;;;;;;;0.30;0.30;;;9.90;99.90;;;;;;5006539;28;20018;-77
2022/09/25 04:30:26;;;;;;;0.28;0.28;;;9.90;99.90;;;;;;5001235;28;20099;-77
2022/09/25 04:35:39;;;;;;;2.35;2.17;;;10.00;99.90;;;;;;5004681;28;20092;-76
2022/09/25 04:38:05;;;;;;;0.20;0.20;;;10.00;99.90;;;;;;5004600;28;20018;-76
2022/09/25 04:40:31;;;;;;;0.85;0.73;;;10.00;99.90;;;;;;5005456;28;20033;-76
2022/09/25 04:43:01;;;;;;;0.10;0.10;;;10.00;99.90;;;;;;5005760;28;20037;-77
2022/09/25 04:45:28;;;;;;;0.00;0.00;;;10.00;99.90;;;;;;5006994;28;20022;-76
2022/09/25 04:47:57;;;;;;;0.00;0.00;;;10.00;99.90;;;;;;5007366;28;20030;-77
2022/09/25 04:50:26;;;;;;;0.82;0.82;;;10.10;99.90;;;;;;5009186;28;20338;-77
2022/09/25 04:52:53;;;;;;;0.00;0.00;;;10.10;99.90;;;;;;5009100;28;20267;-76
2022/09/25 04:55:20;;;;;;;0.00;0.00;;;10.10;99.90;;;;;;5007357;28;20307;-77
2022/09/25 04:57:58;;;;;;;0.28;0.15;;;10.20;99.90;;;;;;5008660;28;20413;-77
2022/09/25 05:00:26;;;;;;;0.00;0.00;;;10.20;99.90;;;;;;5005200;28;20088;-76
2022/09/25 05:02:52;;;;;;;0.47;0.47;;;10.20;99.90;;;;;;5004398;28;20495;-76
2022/09/25 05:05:18;;;;;;;0.20;0.20;;;10.20;99.90;;;;;;5009430;28;20100;-77
2022/09/25 05:07:58;;;;;;;0.00;0.00;;;10.20;99.90;;;;;;5005658;28;20026;-76
2022/09/25 05:10:29;;;;;;;0.35;0.35;;;10.20;99.90;;;;;;5004007;28;20111;-77
2022/09/25 05:12:59;;;;;;;0.13;0.13;;;10.30;99.90;;;;;;5004404;28;20307;-76
2022/09/25 05:15:27;;;;;;;0.00;0.00;;;10.30;99.90;;;;;;5004596;28;20354;-77
2022/09/25 05:18:01;;;;;;;0.73;0.73;;;10.40;99.90;;;;;;5005194;28;20511;-77
2022/09/25 05:20:27;;;;;;;3.83;3.17;;;10.40;99.90;;;;;;5006557;28;20230;-76
2022/09/25 05:22:56;;;;;;;6.78;6.20;;;10.50;99.90;;;;;;5006088;28;20092;-79
2022/09/25 05:25:23;;;;;;;6.30;4.65;;;10.50;99.90;;;;;;5006832;28;20014;-76
2022/09/25 05:27:57;;;;;;;1.95;1.80;;;10.50;99.90;;;;;;5006579;28;20030;-76
2022/09/25 05:30:32;;;;;;;0.95;0.95;;;10.50;99.90;;;;;;5008553;28;20033;-77
2022/09/25 05:32:58;;;;;;;0.90;0.85;;;10.60;99.90;;;;;;5014133;28;20037;-76
2022/09/25 05:35:45;;;;;;;0.08;0.08;;;10.70;99.90;;;;;;5020655;28;20052;-78
2022/09/25 05:38:11;;;;;;;0.10;0.10;;;8.60;99.90;;;;;;5013604;28;20021;-77
2022/09/25 05:40:38;;;;;;;0.20;0.20;;;10.80;99.90;;;;;;5010697;28;20233;-77
2022/09/25 05:43:04;;;;;;;0.50;0.50;;;10.90;99.90;;;;;;5003889;28;20042;-77
2022/09/25 05:45:30;;;;;;;0.47;0.45;;;11.00;99.90;;;;;;5005061;28;20076;-77
2022/09/25 05:48:04;;;;;;;0.10;0.10;;;11.10;99.90;;;;;;5003522;28;20036;-78
2022/09/25 05:50:33;;;;;;;0.10;0.10;;;11.20;99.90;;;;;;5004346;28;20049;-77
2022/09/25 05:53:00;;;;;;;0.20;0.20;;;11.20;99.90;;;;;;5004028;28;20036;-77
2022/09/25 05:55:27;;;;;;;0.88;0.68;;;11.30;99.90;;;;;;5012198;28;20026;-77
2022/09/25 05:57:53;;;;;;;0.57;0.57;;;11.40;99.90;;;;;;5008085;28;20100;-77
2022/09/25 06:00:19;;;;;;;0.10;0.10;;;11.50;99.90;;;;;;5005991;28;20057;-76
2022/09/25 06:02:52;;;;;;;0.30;0.30;;;11.90;99.90;;;;;;5000605;28;20128;-77
2022/09/25 06:05:18;;;;;;;0.10;0.10;;;11.70;99.90;;;;;;5001225;28;20018;-78
2022/09/25 06:07:43;;;;;;;0.13;0.13;;;11.80;99.90;;;;;;4999376;28;20268;-77
2022/09/25 06:10:10;;;;;;;0.10;0.10;;;11.90;99.90;;;;;;5002908;28;20112;-77
2022/09/25 06:12:36;;;;;;;0.85;0.85;;;11.90;99.90;;;;;;5000496;28;20338;-77
2022/09/25 06:15:01;;;;;;;1.40;1.30;;;12.00;99.90;;;;;;4999891;28;20073;-78
2022/09/25 06:17:27;;;;;;;0.15;0.15;;;12.00;99.90;;;;;;4999142;28;20541;-78
2022/09/25 06:19:53;;;;;;;0.22;0.22;;;12.00;99.90;;;;;;4999735;28;20026;-77
2022/09/25 06:22:21;;;;;;;1.13;1.00;;;12.20;99.90;;;;;;5000422;28;20559;-77
2022/09/25 06:24:47;;;;;;;0.52;0.52;;;12.20;99.90;;;;;;4999325;28;20018;-78
2022/09/25 06:27:13;;;;;;;1.55;1.23;;;12.40;99.90;;;;;;4997312;28;20034;-77
2022/09/25 06:29:39;;;;;;;0.10;0.10;;;12.40;99.90;;;;;;4999147;28;20223;-77
2022/09/25 06:32:04;;;;;;;2.70;2.40;;;12.60;99.90;;;;;;4999166;28;20022;-78
2022/09/25 06:34:30;;;;;;;3.33;1.35;;;12.60;99.90;;;;;;4997120;28;20393;-77
2022/09/25 06:36:56;;;;;;;0.20;0.20;;;12.80;99.90;;;;;;4998566;28;20175;-77
2022/09/25 06:39:21;;;;;;;0.20;0.20;;;12.70;99.90;;;;;;4998388;28;20075;-77
2022/09/25 06:41:47;;;;;;;0.43;0.43;;;12.90;99.90;;;;;;4998703;28;20453;-78
2022/09/25 06:44:13;;;;;;;0.20;0.20;;;11.50;99.90;;;;;;4998609;28;20029;-77
2022/09/25 06:46:39;;;;;;;0.30;0.30;;;13.10;99.90;;;;;;4998252;28;20037;-78
2022/09/25 06:49:07;;;;;;;0.10;0.10;;;13.20;99.90;;;;;;4998645;28;20508;-79
2022/09/25 06:51:34;;;;;;;0.28;0.28;;;11.90;99.90;;;;;;4998298;28;20026;-78
2022/09/25 06:54:02;;;;;;;0.80;0.70;;;13.40;99.90;;;;;;5001623;28;20689;-78
2022/09/25 06:56:28;;;;;;;2.55;1.55;;;13.50;99.90;;;;;;5000449;28;20030;-79
2022/09/25 06:58:54;;;;;;;1.40;1.35;;;13.70;99.90;;;;;;5002207;28;20353;-79
2022/09/25 07:01:19;;;;;;;0.20;0.20;;;13.80;99.90;;;;;;5002978;28;20048;-79
2022/09/25 07:03:51;;;;;;;0.20;0.20;;;14.00;99.90;;;;;;5002341;28;20666;-78
2022/09/25 07:06:19;;;;;;;0.25;0.22;;;11.20;99.90;;;;;;5000931;28;20018;-78
2022/09/25 07:08:49;;;;;;;0.73;0.73;;;13.30;99.90;;;;;;5000480;28;20052;-77
2022/09/25 07:11:23;;;;;;;0.65;0.65;;;14.60;99.90;;;;;;5002077;28;20192;-77
2022/09/25 07:13:51;;;;;;;0.73;0.73;;;14.60;99.90;;;;;;5001856;28;20412;-77
2022/09/25 07:16:18;;;;;;;0.43;0.43;;;14.70;99.90;;;;;;5002256;28;20069;-81
2022/09/25 07:18:47;;;;;;;0.32;0.32;;;14.90;99.90;;;;;;5002558;28;20036;-79
2022/09/25 07:21:16;;;;;;;1.88;0.73;;;15.10;99.90;;;;;;5002829;28;20127;-78
2022/09/25 07:23:42;;;;;;;0.65;0.50;;;15.20;99.90;;;;;;5002150;28;20033;-81
2022/09/25 07:26:11;;;;;;;0.60;0.60;;;15.30;99.90;;;;;;5002439;28;20026;-79
2022/09/25 07:28:42;;;;;;;0.60;0.60;;;15.50;99.90;;;;;;5002189;28;20365;-78
2022/09/25 07:31:19;;;;;;;0.30;0.30;;;15.60;99.90;;;;;;5000705;28;20412;-78
2022/09/25 07:33:46;;;;;;;0.20;0.20;;;15.80;99.90;;;;;;5001648;28;20030;-77
2022/09/25 07:36:13;;;;;;;1.00;1.00;;;15.70;99.90;;;;;;5001335;28;20683;-78
2022/09/25 07:38:49;;;;;;;2.95;1.27;;;15.70;99.90;;;;;;5000437;28;20168;-75
2022/09/25 07:41:15;;;;;;;0.77;0.77;;;15.60;99.90;;;;;;5001047;28;20291;-75
2022/09/25 07:43:42;;;;;;;0.50;0.50;;;15.70;99.90;;;;;;5000120;28;20060;-78
2022/09/25 07:46:08;;;;;;;0.38;0.30;;;15.80;99.90;;;;;;5001184;28;20516;-78
2022/09/25 07:48:34;;;;;;;0.15;0.13;;;15.80;99.90;;;;;;4999459;28;20292;-75
2022/09/25 07:51:10;;;;;;;0.20;0.20;;;15.90;99.90;;;;;;5002083;28;20026;-76
2022/09/25 07:53:37;;;;;;;0.30;0.30;;;16.10;99.90;;;;;;4999926;28;20548;-76
2022/09/25 07:56:03;;;;;;;0.73;0.73;;;14.10;99.90;;;;;;5001059;28;20299;-76
2022/09/25 07:58:29;;;;;;;2.20;1.95;;;16.00;99.90;;;;;;4999846;28;20624;-78
2022/09/25 08:01:00;;;;;;;0.80;0.70;;;15.80;99.90;;;;;;4999723;28;20041;-78
2022/09/25 08:03:26;;;;;;;1.67;1.17;;;15.80;99.90;;;;;;4999882;28;20029;-76
2022/09/25 08:06:03;;;;;;;0.50;0.50;;;15.80;99.90;;;;;;5000043;28;20420;-78
2022/09/25 08:08:29;;;;;;;0.40;0.40;;;15.80;99.10;;;;;;4999095;28;20053;-78
2022/09/25 08:11:03;;;;;;;2.20;2.03;;;16.00;99.00;;;;;;5000902;28;20260;-85
2022/09/25 08:13:31;;;;;;;1.10;1.00;;;16.10;98.80;;;;;;5000593;28;20500;-76
2022/09/25 08:15:57;;;;;;;0.22;0.22;;;16.10;98.80;;;;;;5000839;28;20030;-77
2022/09/25 08:18:23;;;;;;;2.30;0.85;;;16.30;98.80;;;;;;4999379;28;20034;-78
2022/09/25 08:20:49;;;;;;;0.10;0.10;;;16.40;98.90;;;;;;5000305;28;20037;-76
2022/09/25 08:23:15;;;;;;;0.55;0.47;;;16.50;98.30;;;;;;5000436;28;20397;-76
2022/09/25 08:25:40;;;;;;;0.73;0.73;;;16.50;97.50;;;;;;4999529;28;20022;-78
2022/09/25 08:28:06;;;;;;;0.85;0.55;;;16.60;97.40;;;;;;5000846;28;20052;-76
2022/09/25 08:30:32;;;;;;;0.25;0.25;;;17.20;98.20;;;;;;4999029;28;20018;-77
2022/09/25 08:32:58;;;;;;;0.57;0.57;;;16.90;98.30;;;;;;5000828;28;20030;-75
2022/09/25 08:35:24;;;;;;;0.20;0.20;;;16.80;97.80;;;;;;5002934;28;20060;-76
2022/09/25 08:37:53;;;;;;;1.33;1.23;;;17.00;97.60;;;;;;5000749;28;20014;-76
2022/09/25 08:40:25;;;;;;;0.25;0.25;;;17.10;97.60;;;;;;5000360;28;20030;-77
2022/09/25 08:42:53;;;;;;;0.85;0.77;;;17.50;97.70;;;;;;4998129;28;20578;-77
2022/09/25 08:51:09;;;;;;;0.57;0.57;;;17.00;99.30;;;;;;5000311;28;20032;-80
2022/09/25 08:53:38;;;;;;;1.02;0.98;;;16.90;99.90;;;;;;4998608;28;20029;-76
2022/09/25 08:56:14;;;;;;;0.77;0.52;;;16.80;99.90;;;;;;5000013;28;20111;-77
2022/09/25 08:58:50;;;;;;;1.77;1.27;;;16.60;99.90;;;;;;5002173;28;20113;-81
2022/09/25 09:01:18;;;;;;;1.92;1.83;;;16.30;99.90;;;;;;4998498;28;20022;-77
2022/09/25 09:04:04;;;;;;;1.25;0.50;;;16.10;99.90;;;;;;5000188;28;20038;-77
2022/09/25 09:06:32;;;;;;;0.75;0.75;;;16.10;99.90;;;;;;5000458;28;20018;-77
2022/09/25 09:09:10;;;;;;;0.65;0.65;;;16.10;99.90;;;;;;4998096;28;20645;-77
2022/09/25 09:11:45;;;;;;;5.53;2.55;;;15.80;99.90;;;;;;4998193;28;20096;-76
2022/09/25 09:14:16;;;;;;;3.75;3.15;;;15.70;99.90;;;;;;5001017;28;20033;-76
2022/09/25 09:16:53;;;;;;;4.00;1.92;;;15.50;99.90;;;;;;5001170;28;20113;-76
2022/09/25 09:19:19;;;;;;;1.85;1.73;;;15.20;99.90;;;;;;4999813;28;20026;-78
2022/09/25 09:22:08;;;;;;;1.35;0.60;;;15.20;99.90;;;;;;5000119;28;20025;-77
2022/09/25 09:25:01;;;;;;;2.88;2.60;;;15.30;99.90;;;;;;4999611;28;20017;-76
2022/09/25 09:27:37;;;;;;;2.67;0.57;;;15.50;99.90;;;;;;5000677;28;20021;-80
2022/09/25 09:30:20;;;;;;;3.28;2.03;;;15.70;99.90;;;;;;4999538;28;20014;-76
2022/09/25 09:33:24;;;;;;;2.65;2.42;;;16.60;99.90;;;;;;4999146;28;20029;-79
2022/09/25 09:36:11;;;;;;;1.20;1.05;;;16.00;99.90;;;;;;4999283;28;20132;-78
2022/09/25 09:39:05;;;;;;;1.33;1.25;;;16.20;99.90;;;;;;4999261;28;20034;-78
2022/09/25 09:41:39;;;;;;;2.28;1.00;;;16.20;99.90;;;;;;4999101;28;20017;-77
2022/09/25 09:44:53;;;;;;;0.30;0.30;;;13.80;99.90;;;;;;4999420;28;20222;-78
2022/09/25 09:47:39;;;;;;;0.73;0.73;;;16.30;99.90;;;;;;4975845;28;20046;-78
2022/09/25 09:50:29;;;;;;;0.35;0.35;;;16.30;99.90;;;;;;4976183;28;20620;-76
2022/09/25 09:53:01;;;;;;;0.32;0.32;;;16.30;99.90;;;;;;4976178;28;20307;-78
2022/09/25 09:55:45;;;;;;;0.25;0.25;;;16.40;99.90;;;;;;4976193;28;20027;-76
2022/09/25 09:58:23;;;;;;;0.65;0.65;;;16.60;99.90;;;;;;4960247;28;20456;-82
2022/09/25 10:00:50;;;;;;;1.45;1.30;;;15.00;99.90;;;;;;4959615;28;20540;-78
2022/09/25 10:03:31;;;;;;;0.10;0.10;;;17.00;99.90;;;;;;4975671;28;20231;-79
2022/09/25 10:06:01;;;;;;;0.55;0.55;;;17.20;99.90;;;;;;4959849;28;20092;-78
2022/09/25 10:08:28;;;;;;;0.40;0.40;;;17.40;99.90;;;;;;4975686;28;20129;-77
2022/09/25 10:10:54;;;;;;;0.20;0.20;;;17.50;99.90;;;;;;4976047;28;20160;-78
2022/09/25 10:13:24;;;;;;;0.73;0.65;;;17.60;99.90;;;;;;4976552;28;20189;-78
2022/09/25 10:16:02;;;;;;;0.40;0.40;;;17.50;99.90;;;;;;4976412;28;20042;-77
2022/09/25 10:18:35;;;;;;;0.65;0.63;;;17.40;99.90;;;;;;4975949;28;20548;-76
2022/09/25 10:21:15;;;;;;;3.63;1.17;;;17.40;99.90;;;;;;4976042;28;20542;-77
2022/09/25 10:24:01;;;;;;;0.25;0.25;;;17.40;99.90;;;;;;4988906;28;20022;-76
2022/09/25 10:26:37;;;;;;;0.35;0.28;;;17.40;99.90;;;;;;4996663;28;20277;-77
2022/09/25 10:29:08;;;;;;;0.38;0.32;;;17.60;99.90;;;;;;4996357;28;20323;-78
2022/09/25 10:31:41;;;;;;;0.75;0.75;;;17.50;99.90;;;;;;4998227;28;20026;-77
2022/09/25 10:34:16;;;;;;;0.60;0.43;;;17.40;99.90;;;;;;4997300;28;20394;-76
2022/09/25 10:36:48;;;;;;;0.10;0.10;;;17.40;99.90;;;;;;4997199;28;20105;-77
2022/09/25 10:39:29;;;;;;;0.28;0.28;;;17.30;99.90;;;;;;4998757;28;20029;-75
2022/09/25 10:41:57;;;;;;;0.30;0.30;;;17.40;99.90;;;;;;4998157;28;20026;-76
2022/09/25 10:44:34;;;;;;;0.90;0.65;;;17.30;99.90;;;;;;4997606;28;20253;-76
2022/09/25 10:50:17;;;;;;;0.75;0.40;;;17.30;99.90;;;;;;4998242;28;20061;-77
2022/09/25 10:52:51;;;;;;;0.10;0.10;;;17.20;99.90;;;;;;4998038;28;20168;-76
2022/09/25 10:55:29;;;;;;;0.22;0.22;;;17.20;99.90;;;;;;4998386;28;20214;-76
2022/09/25 10:58:10;;;;;;;0.57;0.57;;;17.10;99.90;;;;;;4996568;28;20315;-76
2022/09/25 11:00:59;;;;;;;0.10;0.10;;;17.10;99.90;;;;;;4998713;28;20030;-77
2022/09/25 11:03:30;;;;;;;0.10;0.10;;;17.10;99.90;;;;;;4996529;28;20129;-76
2022/09/25 11:06:06;;;;;;;0.80;0.80;;;17.00;99.90;;;;;;4998633;28;20495;-78
2022/09/25 11:08:37;;;;;;;0.10;0.10;;;15.90;99.90;;;;;;4997040;28;20080;-77
2022/09/25 11:11:04;;;;;;;0.98;0.80;;;17.00;99.90;;;;;;4998509;28;20048;-79
2022/09/25 11:13:45;;;;;;;2.13;0.73;;;17.00;99.90;;;;;;4998307;28;20033;-77
2022/09/25 11:16:11;;;;;;;0.75;0.73;;;16.70;99.90;;;;;;4996502;28;20058;-78
2022/09/25 11:18:44;;;;;;;1.45;0.60;;;17.00;99.90;;;;;;4996546;28;20026;-78
2022/09/25 11:21:43;;;;;;;1.55;1.13;;;17.10;99.90;;;;;;4999266;28;20017;-80
2022/09/25 11:24:45;;;;;;;0.10;0.10;;;17.10;99.90;;;;;;5000058;28;20053;-78
2022/09/25 11:27:33;;;;;;;0.28;0.28;;;17.30;99.90;;;;;;4996736;28;20547;-78
2022/09/25 11:30:08;;;;;;;0.20;0.20;;;17.50;99.90;;;;;;4999014;28;20030;-78
2022/09/25 11:33:04;;;;;;;0.30;0.20;;;17.70;99.90;;;;;;4997849;28;20025;-79
2022/09/25 11:35:53;;;;;;;0.63;0.38;;;17.90;99.90;;;;;;4975790;28;20545;-79
2022/09/25 11:41:29;;;;;;;0.30;0.25;;;18.30;99.30;;;;;;4979198;28;20092;-78
2022/09/25 11:44:14;;;;;;;0.43;0.43;;;18.40;98.80;;;;;;4979773;28;20022;-79
2022/09/25 11:47:00;;;;;;;0.25;0.25;;;18.60;98.70;;;;;;4963019;28;20295;-79
2022/09/25 11:49:30;;;;;;;0.10;0.10;;;18.80;98.50;;;;;;4962552;28;20327;-78
2022/09/25 11:51:55;;;;;;;0.85;0.63;;;19.00;98.70;;;;;;4962959;28;20493;-78
2022/09/25 11:54:36;;;;;;;0.82;0.77;;;19.10;97.60;;;;;;4962320;28;20046;-78
2022/09/25 11:57:18;;;;;;;1.05;1.02;;;19.20;97.60;;;;;;4978691;28;20057;-79
2022/09/25 12:00:05;;;;;;;0.35;0.35;;;19.10;97.20;;;;;;4962520;28;20112;-80
2022/09/25 12:02:40;;;;;;;0.30;0.30;;;19.00;97.20;;;;;;4979031;28;20042;-78
2022/09/25 12:05:13;;;;;;;0.30;0.30;;;19.00;97.40;;;;;;4961908;28;20026;-78
2022/09/25 12:08:00;;;;;;;0.50;0.50;;;19.00;97.30;;;;;;4979822;28;20276;-78
2022/09/25 12:11:06;;;;;;;0.10;0.10;;;19.10;97.60;;;;;;4962778;28;20078;-79
2022/09/25 12:13:43;;;;;;;2.00;1.90;;;18.90;97.50;;;;;;4997949;28;20353;-78
2022/09/25 12:16:47;;;;;;;0.25;0.25;;;19.20;97.20;;;;;;4999312;28;20481;-79
2022/09/25 12:19:32;;;;;;;0.30;0.30;;;19.30;96.80;;;;;;5001235;28;20021;-78
2022/09/25 12:22:38;;;;;;;1.05;0.43;;;19.30;96.40;;;;;;5003325;28;20057;-78
2022/09/25 12:25:27;;;;;;;0.40;0.38;;;19.40;96.40;;;;;;5003866;28;20172;-78
2022/09/25 12:28:05;;;;;;;0.52;0.52;;;19.50;96.20;;;;;;5002237;28;20064;-78
2022/09/25 12:30:57;;;;;;;0.10;0.10;;;19.50;96.00;;;;;;5001103;28;20279;-80
2022/09/25 12:33:39;;;;;;;0.10;0.10;;;19.70;96.00;;;;;;4999522;28;20037;-78
2022/09/25 12:36:22;;;;;;;0.43;0.43;;;19.80;95.30;;;;;;5001015;28;20029;-80
2022/09/25 12:39:00;;;;;;;0.65;0.38;;;19.70;95.30;;;;;;5000355;28;20433;-78
2022/09/25 12:41:41;;;;;;;0.50;0.50;;;19.60;95.40;;;;;;4999082;28;20041;-81
2022/09/25 12:44:11;;;;;;;0.32;0.32;;;19.50;95.40;;;;;;5001085;28;20310;-78
2022/09/25 12:47:22;;;;;;;0.57;0.52;;;19.30;95.80;;;;;;5001360;28;20022;-78
2022/09/25 12:50:08;;;;;;;0.10;0.10;;;18.90;96.30;;;;;;4978632;28;20236;-80
2022/09/25 12:52:52;;;;;;;8.13;0.90;;;19.00;96.70;;;;;;4978003;28;20114;-78
2022/09/25 12:55:22;;;;;;;0.57;0.47;;;18.80;96.90;;;;;;4978213;28;20301;-78
2022/09/25 12:58:06;;;;;;;0.13;0.13;;;18.80;97.00;;;;;;4978018;28;20038;-79
2022/09/25 13:00:34;;;;;;;0.13;0.13;;;18.80;97.30;;;;;;4979138;28;20042;-77
2022/09/25 13:03:16;;;;;;;1.85;0.40;;;18.70;97.90;;;;;;4962263;28;20044;-78
2022/09/25 13:05:59;;;;;;;0.40;0.40;;;18.70;97.90;;;;;;4978800;28;20046;-78
2022/09/25 13:08:36;;;;;;;0.82;0.82;;;18.50;98.50;;;;;;4961621;28;20033;-77
2022/09/25 13:11:15;;;;;;;0.22;0.20;;;18.40;98.80;;;;;;4962010;28;20465;-78
2022/09/25 13:13:52;;;;;;;0.22;0.22;;;18.40;99.20;;;;;;4977910;28;20038;-78
2022/09/25 13:16:18;;;;;;;0.85;0.85;;;18.30;99.90;;;;;;4961174;28;20068;-79
2022/09/25 13:19:07;;;;;;;0.85;0.50;;;18.20;99.90;;;;;;4977838;28;20082;-78
2022/09/25 13:21:35;;;;;;;0.10;0.10;;;18.10;99.90;;;;;;4977707;28;20045;-78
2022/09/25 13:24:09;;;;;;;0.10;0.10;;;18.10;99.90;;;;;;4977538;28;20034;-79
2022/09/25 13:26:45;;;;;;;0.22;0.22;;;18.10;99.90;;;;;;4998164;28;20022;-78
2022/09/25 13:29:26;;;;;;;1.08;0.88;;;18.00;99.90;;;;;;4999433;28;20025;-78
2022/09/25 13:32:03;;;;;;;1.88;1.20;;;17.50;99.90;;;;;;5000233;28;20022;-80
2022/09/25 13:34:36;;;;;;;0.50;0.50;;;18.70;99.90;;;;;;4999998;28;20038;-78
2022/09/25 13:37:05;;;;;;;0.15;0.13;;;17.80;99.90;;;;;;5001139;28;20045;-78